createdAt,value
2018-07-26T00:00:37.936Z,19.88
2018-07-26T00:03:07.210Z,19.90
2018-07-26T00:05:36.264Z,19.97
2018-07-26T00:08:05.456Z,20.04
2018-07-26T00:10:34.845Z,19.98
2018-07-26T00:13:03.935Z,20.03
2018-07-26T00:15:33.172Z,20.02
2018-07-26T00:18:02.323Z,20.01
2018-07-26T00:20:31.796Z,19.90
2018-07-26T00:23:00.927Z,19.90
2018-07-26T00:25:30.218Z,19.84
2018-07-26T00:27:59.277Z,19.85
2018-07-26T00:30:28.421Z,19.90
2018-07-26T00:32:57.535Z,19.81
2018-07-26T00:35:26.645Z,19.77
2018-07-26T00:37:55.898Z,19.72
2018-07-26T00:40:25.141Z,19.63
2018-07-26T00:42:54.249Z,19.66
2018-07-26T00:45:23.391Z,19.66
2018-07-26T00:47:52.577Z,19.63
2018-07-26T00:50:21.977Z,19.64
2018-07-26T00:52:51.051Z,19.58
2018-07-26T00:55:20.181Z,19.54
2018-07-26T00:57:49.385Z,19.66
2018-07-26T01:00:19.616Z,19.69
2018-07-26T01:02:48.694Z,19.64
2018-07-26T01:05:17.905Z,19.55
2018-07-26T01:07:47.022Z,19.43
2018-07-26T01:10:16.132Z,19.36
2018-07-26T01:12:45.389Z,19.30
2018-07-26T01:15:14.498Z,19.31
2018-07-26T01:17:43.720Z,19.33
2018-07-26T01:20:12.861Z,19.20
2018-07-26T01:22:42.122Z,19.18
2018-07-26T01:25:11.278Z,19.14
2018-07-26T01:27:40.376Z,19.04
2018-07-26T01:30:09.498Z,19.13
2018-07-26T01:32:38.646Z,19.08
2018-07-26T01:35:07.739Z,19.06
2018-07-26T01:37:36.958Z,19.07
2018-07-26T01:40:06.088Z,19.06
2018-07-26T01:42:45.295Z,19.10
2018-07-26T01:45:14.373Z,19.12
2018-07-26T01:47:43.607Z,19.09
2018-07-26T01:50:12.693Z,19.10
2018-07-26T01:52:41.893Z,19.08
2018-07-26T01:55:10.985Z,19.03
2018-07-26T01:57:40.194Z,19.00
2018-07-26T02:00:09.347Z,18.95
2018-07-26T02:02:38.469Z,18.95
2018-07-26T02:05:07.573Z,19.01
2018-07-26T02:07:36.797Z,19.08
2018-07-26T02:10:05.909Z,19.00
2018-07-26T02:12:35.005Z,19.06
2018-07-26T02:15:04.180Z,18.99
2018-07-26T02:17:33.308Z,18.99
2018-07-26T02:20:02.409Z,18.93
2018-07-26T02:22:31.517Z,18.96
2018-07-26T02:25:00.676Z,18.94
2018-07-26T02:27:29.792Z,18.85
2018-07-26T02:29:58.980Z,18.91
2018-07-26T02:32:28.081Z,19.06
2018-07-26T02:34:57.180Z,19.02
2018-07-26T02:37:26.287Z,19.07
2018-07-26T02:39:55.568Z,18.92
2018-07-26T02:42:24.669Z,18.90
2018-07-26T02:44:53.768Z,18.83
2018-07-26T02:47:22.936Z,18.79
2018-07-26T02:49:52.049Z,18.78
2018-07-26T02:52:21.167Z,18.76
2018-07-26T02:54:50.387Z,18.86
2018-07-26T02:57:19.518Z,18.87
2018-07-26T02:59:48.654Z,18.78
2018-07-26T03:02:17.870Z,18.78
2018-07-26T03:04:46.998Z,18.81
2018-07-26T03:07:16.178Z,18.79
2018-07-26T03:09:45.502Z,18.80
2018-07-26T03:12:14.678Z,18.82
2018-07-26T03:14:45.121Z,18.78
2018-07-26T03:17:15.615Z,18.77
2018-07-26T03:19:45.439Z,18.69
2018-07-26T03:22:14.765Z,18.72
2018-07-26T03:24:43.870Z,18.71
2018-07-26T03:27:13.051Z,18.75
2018-07-26T03:29:42.145Z,18.60
2018-07-26T03:32:11.397Z,18.70
2018-07-26T03:34:40.517Z,18.60
2018-07-26T03:37:09.709Z,18.68
2018-07-26T03:39:38.825Z,18.84
2018-07-26T03:42:08.028Z,18.62
2018-07-26T03:44:37.178Z,18.66
2018-07-26T03:47:06.553Z,18.61
2018-07-26T03:49:35.673Z,18.52
2018-07-26T03:52:04.889Z,18.43
2018-07-26T03:54:34.061Z,18.40
2018-07-26T03:57:03.250Z,18.38
2018-07-26T03:59:32.364Z,18.36
2018-07-26T04:02:01.456Z,18.34
2018-07-26T04:04:30.677Z,18.28
2018-07-26T04:06:59.860Z,18.37
2018-07-26T04:09:29.064Z,18.35
2018-07-26T04:11:58.398Z,18.35
2018-07-26T04:14:27.498Z,18.28
2018-07-26T04:16:56.651Z,18.32
2018-07-26T04:19:25.853Z,18.33
2018-07-26T04:21:55.489Z,18.39
2018-07-26T04:24:24.700Z,18.36
2018-07-26T04:26:54.013Z,18.40
2018-07-26T04:29:23.305Z,18.41
2018-07-26T04:31:52.427Z,18.34
2018-07-26T04:34:21.552Z,18.37
2018-07-26T04:36:50.666Z,18.45
2018-07-26T04:39:19.814Z,18.57
2018-07-26T04:41:48.949Z,18.68
2018-07-26T04:44:18.078Z,18.71
2018-07-26T04:46:47.204Z,18.83
2018-07-26T04:49:16.365Z,18.83
2018-07-26T04:51:45.585Z,18.82
2018-07-26T04:54:14.726Z,18.84
2018-07-26T04:56:43.935Z,18.89
2018-07-26T04:59:13.084Z,18.92
2018-07-26T05:01:42.640Z,18.86
2018-07-26T05:04:11.758Z,18.87
2018-07-26T05:06:40.933Z,19.01
2018-07-26T05:09:11.644Z,19.05
2018-07-26T05:11:40.897Z,19.18
2018-07-26T05:14:10.000Z,19.32
2018-07-26T05:16:39.180Z,19.27
2018-07-26T05:19:08.330Z,19.38
2018-07-26T05:21:37.821Z,19.39
2018-07-26T05:24:09.319Z,19.47
2018-07-26T05:26:40.017Z,19.49
2018-07-26T05:29:09.119Z,19.54
2018-07-26T05:31:38.242Z,19.51
2018-07-26T05:34:07.388Z,19.51
2018-07-26T05:36:36.618Z,19.54
2018-07-26T05:39:08.868Z,19.59
2018-07-26T05:41:38.077Z,19.65
2018-07-26T05:44:07.181Z,19.70
2018-07-26T05:46:36.377Z,19.77
2018-07-26T05:49:05.762Z,19.81
2018-07-26T05:51:34.940Z,19.89
2018-07-26T05:54:04.252Z,20.00
2018-07-26T05:56:33.478Z,20.10
2018-07-26T05:59:02.559Z,20.10
2018-07-26T06:01:31.656Z,20.11
2018-07-26T06:04:00.934Z,20.20
2018-07-26T06:06:30.270Z,20.29
2018-07-26T06:08:59.362Z,20.33
2018-07-26T06:11:28.557Z,20.38
2018-07-26T06:13:57.678Z,20.45
2018-07-26T06:16:26.789Z,20.50
2018-07-26T06:18:55.959Z,20.56
2018-07-26T06:21:25.077Z,20.59
2018-07-26T06:23:54.153Z,20.65
2018-07-26T06:26:23.483Z,20.71
2018-07-26T06:28:52.721Z,20.73
2018-07-26T06:31:21.781Z,20.77
2018-07-26T06:33:50.886Z,20.79
2018-07-26T06:36:20.040Z,20.81
2018-07-26T06:38:49.329Z,20.88
2018-07-26T06:41:18.414Z,20.92
2018-07-26T06:43:47.549Z,20.95
2018-07-26T06:46:16.855Z,20.97
2018-07-26T06:48:45.977Z,21.10
2018-07-26T06:51:15.257Z,21.14
2018-07-26T06:53:44.349Z,21.27
2018-07-26T06:56:13.457Z,21.38
2018-07-26T06:58:42.553Z,21.41
2018-07-26T07:01:11.698Z,21.43
2018-07-26T07:03:40.780Z,21.46
2018-07-26T07:06:09.868Z,21.51
2018-07-26T07:08:39.013Z,21.56
2018-07-26T07:11:08.180Z,21.53
2018-07-26T07:13:37.291Z,21.58
2018-07-26T07:16:06.392Z,21.62
2018-07-26T07:18:35.550Z,21.66
2018-07-26T07:21:04.675Z,21.77
2018-07-26T07:23:33.824Z,21.97
2018-07-26T07:26:02.985Z,22.05
2018-07-26T07:28:32.060Z,22.12
2018-07-26T07:31:01.201Z,21.99
2018-07-26T07:33:30.314Z,21.89
2018-07-26T07:35:59.501Z,21.97
2018-07-26T07:38:28.610Z,22.10
2018-07-26T07:40:57.846Z,22.22
2018-07-26T07:43:27.014Z,22.27
2018-07-26T07:45:56.124Z,22.33
2018-07-26T07:48:25.217Z,22.45
2018-07-26T07:50:54.553Z,22.53
2018-07-26T07:53:23.622Z,22.56
2018-07-26T07:55:52.761Z,22.63
2018-07-26T07:58:21.877Z,22.69
2018-07-26T08:00:51.061Z,22.80
2018-07-26T08:03:20.241Z,22.94
2018-07-26T08:05:49.398Z,23.02
2018-07-26T08:08:18.517Z,23.19
2018-07-26T08:10:47.613Z,23.10
2018-07-26T08:13:16.780Z,23.13
2018-07-26T08:15:45.914Z,23.19
2018-07-26T08:18:14.976Z,23.27
2018-07-26T08:20:44.096Z,23.41
2018-07-26T08:23:13.244Z,23.50
2018-07-26T08:25:42.376Z,23.53
2018-07-26T08:28:11.624Z,23.55
2018-07-26T08:30:40.776Z,23.42
2018-07-26T08:33:09.872Z,23.58
2018-07-26T08:35:39.027Z,23.58
2018-07-26T08:38:08.182Z,23.57
2018-07-26T08:40:37.714Z,23.55
2018-07-26T08:43:07.242Z,23.49
2018-07-26T08:45:36.336Z,23.47
2018-07-26T08:48:05.698Z,23.46
2018-07-26T08:50:34.818Z,23.72
2018-07-26T08:53:10.728Z,23.77
2018-07-26T08:55:39.833Z,23.68
2018-07-26T08:58:08.933Z,23.75
2018-07-26T09:00:38.093Z,23.71
2018-07-26T09:03:07.280Z,23.74
2018-07-26T09:05:36.357Z,23.83
2018-07-26T09:08:05.472Z,23.77
2018-07-26T09:10:34.597Z,24.00
2018-07-26T09:13:03.743Z,24.05
2018-07-26T09:15:32.868Z,24.04
2018-07-26T09:18:02.107Z,24.03
2018-07-26T09:20:31.666Z,24.02
2018-07-26T09:23:00.910Z,24.08
2018-07-26T09:25:30.067Z,24.17
2018-07-26T09:27:59.158Z,24.22
2018-07-26T09:30:28.562Z,24.22
2018-07-26T09:32:57.710Z,24.24
2018-07-26T09:35:26.847Z,24.35
2018-07-26T09:37:55.840Z,24.41
2018-07-26T09:40:25.064Z,24.60
2018-07-26T09:42:54.480Z,24.45
2018-07-26T09:45:23.649Z,24.69
2018-07-26T09:47:52.843Z,24.62
2018-07-26T09:50:21.928Z,24.86
2018-07-26T09:52:51.129Z,24.89
2018-07-26T09:55:20.296Z,24.93
2018-07-26T09:57:50.056Z,25.01
2018-07-26T10:00:24.441Z,25.08
2018-07-26T10:02:53.557Z,25.12
2018-07-26T10:05:22.677Z,25.22
2018-07-26T10:07:51.825Z,25.33
2018-07-26T10:10:20.971Z,25.36
2018-07-26T10:12:50.041Z,25.42
2018-07-26T10:15:19.239Z,25.47
2018-07-26T10:17:48.413Z,25.72
2018-07-26T10:20:17.684Z,25.55
2018-07-26T10:22:46.832Z,25.75
2018-07-26T10:25:15.944Z,25.77
2018-07-26T10:27:45.215Z,25.60
2018-07-26T10:30:14.625Z,25.40
2018-07-26T10:32:43.836Z,25.58
2018-07-26T10:35:13.008Z,25.54
2018-07-26T10:37:42.200Z,25.64
2018-07-26T10:40:11.301Z,25.85
2018-07-26T10:42:40.446Z,25.96
2018-07-26T10:45:09.715Z,25.94
2018-07-26T10:47:38.902Z,25.95
2018-07-26T10:50:09.466Z,25.99
2018-07-26T10:52:38.753Z,26.05
2018-07-26T10:55:08.695Z,26.00
2018-07-26T10:57:38.985Z,26.03
2018-07-26T11:00:09.346Z,26.16
2018-07-26T11:02:38.874Z,26.19
2018-07-26T11:05:09.369Z,26.56
2018-07-26T11:07:39.084Z,26.86
2018-07-26T11:10:09.980Z,26.82
2018-07-26T11:12:39.378Z,26.92
2018-07-26T11:15:19.588Z,26.89
2018-07-26T11:17:48.808Z,26.80
2018-07-26T11:20:18.233Z,26.77
2018-07-26T11:22:47.849Z,26.67
2018-07-26T11:25:16.992Z,26.57
2018-07-26T11:27:46.254Z,26.91
2018-07-26T11:30:15.399Z,27.06
2018-07-26T11:32:44.693Z,26.94
2018-07-26T11:35:14.006Z,27.19
2018-07-26T11:37:43.413Z,27.17
2018-07-26T11:40:12.537Z,27.27
2018-07-26T11:42:41.633Z,27.04
2018-07-26T11:45:11.249Z,27.34
2018-07-26T11:47:40.577Z,27.44
2018-07-26T11:50:10.673Z,27.62
2018-07-26T11:52:39.791Z,27.73
2018-07-26T11:55:08.925Z,27.69
2018-07-26T11:57:37.995Z,27.81
2018-07-26T12:00:08.377Z,28.30
2018-07-26T12:02:37.538Z,28.76
2018-07-26T12:05:06.897Z,29.12
2018-07-26T12:07:35.985Z,28.88
2018-07-26T12:10:06.313Z,28.88
2018-07-26T12:12:35.488Z,29.10
2018-07-26T12:15:04.685Z,29.39
2018-07-26T12:17:33.871Z,29.88
2018-07-26T12:20:03.046Z,30.19
2018-07-26T12:22:32.260Z,30.30
2018-07-26T12:25:01.481Z,29.89
2018-07-26T12:27:37.320Z,29.91
2018-07-26T12:30:07.587Z,29.94
2018-07-26T12:32:37.085Z,31.24
2018-07-26T12:35:06.301Z,31.78
2018-07-26T12:37:35.489Z,32.15
2018-07-26T12:40:05.105Z,32.46
2018-07-26T12:42:34.261Z,32.70
2018-07-26T12:45:03.417Z,32.09
2018-07-26T12:47:32.615Z,30.98
2018-07-26T12:50:01.745Z,30.99
2018-07-26T12:52:31.066Z,32.33
2018-07-26T12:55:00.258Z,32.72
2018-07-26T12:57:29.550Z,32.97
2018-07-26T12:59:58.723Z,33.31
2018-07-26T13:02:27.907Z,33.40
2018-07-26T13:04:56.971Z,34.21
2018-07-26T13:07:26.095Z,33.98
2018-07-26T13:09:55.145Z,34.33
2018-07-26T13:12:24.374Z,34.34
2018-07-26T13:14:53.738Z,34.81
2018-07-26T13:17:22.820Z,34.71
2018-07-26T13:19:52.052Z,35.14
2018-07-26T13:22:21.359Z,35.00
2018-07-26T13:24:51.082Z,35.75
2018-07-26T13:27:20.464Z,35.45
2018-07-26T13:29:49.602Z,35.03
2018-07-26T13:32:18.698Z,34.95
2018-07-26T13:34:48.244Z,35.27
2018-07-26T13:37:17.396Z,35.44
2018-07-26T13:39:46.596Z,35.33
2018-07-26T13:42:15.743Z,35.31
2018-07-26T13:44:44.982Z,35.90
2018-07-26T13:47:14.077Z,35.16
2018-07-26T13:49:43.252Z,35.63
2018-07-26T13:52:12.362Z,35.89
2018-07-26T13:54:41.546Z,36.23
2018-07-26T13:57:10.824Z,35.88
2018-07-26T13:59:40.094Z,35.76
2018-07-26T14:02:09.273Z,36.04
2018-07-26T14:04:38.377Z,35.70
2018-07-26T14:07:07.592Z,35.92
2018-07-26T14:09:37.701Z,35.51
2018-07-26T14:12:07.021Z,35.97
2018-07-26T14:14:36.100Z,35.90
2018-07-26T14:17:05.297Z,36.24
2018-07-26T14:19:34.508Z,36.23
2018-07-26T14:22:03.698Z,35.91
2018-07-26T14:24:32.929Z,36.35
2018-07-26T14:27:02.192Z,36.50
2018-07-26T14:29:31.461Z,36.73
2018-07-26T14:32:00.565Z,36.54
2018-07-26T14:34:29.809Z,36.61
2018-07-26T14:36:58.969Z,36.43
2018-07-26T14:39:28.169Z,36.76
2018-07-26T14:41:57.249Z,36.06
2018-07-26T14:44:26.570Z,36.20
2018-07-26T14:46:55.661Z,36.39
2018-07-26T14:49:25.068Z,36.82
2018-07-26T14:51:54.309Z,37.50
2018-07-26T14:54:23.481Z,37.24
2018-07-26T14:56:52.603Z,37.47
2018-07-26T14:59:21.836Z,37.40
2018-07-26T15:01:50.993Z,36.67
2018-07-26T15:04:20.237Z,36.45
2018-07-26T15:06:49.344Z,36.20
2018-07-26T15:09:18.495Z,36.07
2018-07-26T15:11:47.897Z,36.35
2018-07-26T15:14:17.345Z,36.43
2018-07-26T15:16:46.368Z,36.32
2018-07-26T15:19:15.554Z,36.18
2018-07-26T15:21:44.839Z,35.72
2018-07-26T15:24:16.968Z,35.92
2018-07-26T15:26:46.077Z,35.64
2018-07-26T15:29:15.142Z,35.51
2018-07-26T15:31:44.700Z,35.81
2018-07-26T15:34:14.128Z,35.77
2018-07-26T15:36:43.637Z,35.80
2018-07-26T15:39:12.916Z,36.03
2018-07-26T15:41:43.674Z,36.15
2018-07-26T15:44:13.958Z,35.92
2018-07-26T15:46:43.383Z,34.78
2018-07-26T15:49:12.606Z,35.70
2018-07-26T15:51:41.864Z,35.68
2018-07-26T15:54:11.065Z,35.91
2018-07-26T15:56:40.239Z,35.51
2018-07-26T15:59:09.567Z,35.93
2018-07-26T16:01:38.838Z,35.50
2018-07-26T16:04:07.981Z,35.58
2018-07-26T16:06:37.132Z,35.54
2018-07-26T16:09:09.231Z,35.34
2018-07-26T16:11:38.499Z,35.03
2018-07-26T16:14:08.283Z,35.01
2018-07-26T16:16:37.405Z,35.18
2018-07-26T16:19:06.699Z,35.15
2018-07-26T16:21:36.055Z,34.92
2018-07-26T16:24:05.552Z,34.94
2018-07-26T16:26:34.586Z,34.99
2018-07-26T16:29:03.923Z,34.77
2018-07-26T16:31:33.068Z,35.31
2018-07-26T16:34:02.265Z,34.96
2018-07-26T16:36:31.416Z,34.88
2018-07-26T16:39:00.717Z,34.95
2018-07-26T16:41:30.025Z,34.83
2018-07-26T16:43:59.118Z,34.75
2018-07-26T16:46:28.176Z,34.67
2018-07-26T16:48:57.292Z,34.80
2018-07-26T16:51:28.004Z,34.93
2018-07-26T16:53:57.749Z,34.77
2018-07-26T16:56:26.940Z,34.21
2018-07-26T16:58:56.270Z,34.20
2018-07-26T17:01:25.328Z,33.92
2018-07-26T17:03:54.445Z,33.79
2018-07-26T17:06:23.580Z,33.17
2018-07-26T17:08:52.696Z,33.31
2018-07-26T17:11:21.864Z,33.24
2018-07-26T17:13:51.106Z,33.18
2018-07-26T17:16:20.417Z,33.24
2018-07-26T17:18:49.596Z,32.96
2018-07-26T17:21:18.709Z,32.93
2018-07-26T17:23:48.004Z,32.68
2018-07-26T17:26:17.177Z,32.69
2018-07-26T17:28:46.256Z,32.14
2018-07-26T17:31:15.497Z,31.97
2018-07-26T17:33:44.625Z,31.70
2018-07-26T17:36:13.810Z,31.35
2018-07-26T17:38:43.197Z,31.26
2018-07-26T17:41:12.418Z,30.62
2018-07-26T17:43:41.513Z,30.25
2018-07-26T17:46:10.602Z,29.92
2018-07-26T17:48:39.721Z,29.77
2018-07-26T17:51:08.908Z,29.64
